sensor_id;sensor_type;location;lat;lon;timestamp;pressure;altitude;pressure_sealevel;temperature;humidity
74529;BME280;63009;52.584;5.932;2023-04-03T00:01:13;103197.84;;;1.92;86.66
74529;BME280;63009;52.584;5.932;2023-04-03T00:03:38;103187.31;;;1.83;86.44
74529;BME280;63009;52.584;5.932;2023-04-03T00:06:04;103183.72;;;1.76;87.34
74529;BME280;63009;52.584;5.932;2023-04-03T00:08:32;103198.56;;;1.82;87.19
74529;BME280;63009;52.584;5.932;2023-04-03T00:10:58;103192.44;;;1.80;86.58
74529;BME280;63009;52.584;5.932;2023-04-03T00:13:24;103195.88;;;1.76;86.62
74529;BME280;63009;52.584;5.932;2023-04-03T00:15:50;103198.53;;;1.79;86.31
74529;BME280;63009;52.584;5.932;2023-04-03T00:18:15;103208.00;;;1.74;86.83
74529;BME280;63009;52.584;5.932;2023-04-03T00:20:41;103196.56;;;1.64;86.63
74529;BME280;63009;52.584;5.932;2023-04-03T00:23:06;103193.72;;;1.52;86.31
74529;BME280;63009;52.584;5.932;2023-04-03T00:25:32;103200.91;;;1.65;86.47
74529;BME280;63009;52.584;5.932;2023-04-03T00:27:57;103206.94;;;1.63;86.76
74529;BME280;63009;52.584;5.932;2023-04-03T00:30:23;103209.38;;;1.52;86.85
74529;BME280;63009;52.584;5.932;2023-04-03T00:32:49;103183.06;;;1.37;86.51
74529;BME280;63009;52.584;5.932;2023-04-03T00:35:15;103205.78;;;1.44;87.06
74529;BME280;63009;52.584;5.932;2023-04-03T00:37:43;103200.50;;;1.41;86.66
74529;BME280;63009;52.584;5.932;2023-04-03T00:40:10;103196.19;;;1.41;86.74
74529;BME280;63009;52.584;5.932;2023-04-03T00:42:36;103213.59;;;1.44;86.69
74529;BME280;63009;52.584;5.932;2023-04-03T00:47:28;103206.50;;;1.37;86.92
74529;BME280;63009;52.584;5.932;2023-04-03T00:49:54;103211.69;;;1.35;86.47
74529;BME280;63009;52.584;5.932;2023-04-03T00:52:23;103207.31;;;1.34;86.68
74529;BME280;63009;52.584;5.932;2023-04-03T00:54:54;103211.63;;;1.32;86.82
74529;BME280;63009;52.584;5.932;2023-04-03T00:57:22;103198.47;;;1.25;86.40
74529;BME280;63009;52.584;5.932;2023-04-03T00:59:54;103208.91;;;1.26;86.88
74529;BME280;63009;52.584;5.932;2023-04-03T01:02:22;103223.75;;;1.30;86.62
74529;BME280;63009;52.584;5.932;2023-04-03T01:04:47;103201.00;;;1.20;87.71
74529;BME280;63009;52.584;5.932;2023-04-03T01:07:20;103215.94;;;1.29;86.83
74529;BME280;63009;52.584;5.932;2023-04-03T01:09:48;103200.09;;;1.18;87.62
74529;BME280;63009;52.584;5.932;2023-04-03T01:12:30;103219.41;;;1.29;87.80
74529;BME280;63009;52.584;5.932;2023-04-03T01:14:58;103208.00;;;1.24;87.37
74529;BME280;63009;52.584;5.932;2023-04-03T01:17:39;103219.31;;;1.26;87.75
74529;BME280;63009;52.584;5.932;2023-04-03T01:22:47;103211.41;;;1.20;87.81
74529;BME280;63009;52.584;5.932;2023-04-03T01:25:18;103224.47;;;1.23;88.39
74529;BME280;63009;52.584;5.932;2023-04-03T01:27:43;103233.94;;;1.16;88.99
74529;BME280;63009;52.584;5.932;2023-04-03T01:30:09;103214.59;;;1.05;88.79
74529;BME280;63009;52.584;5.932;2023-04-03T01:32:34;103218.19;;;1.12;88.70
74529;BME280;63009;52.584;5.932;2023-04-03T01:35:00;103228.53;;;1.07;89.00
74529;BME280;63009;52.584;5.932;2023-04-03T01:37:25;103193.41;;;0.85;89.37
74529;BME280;63009;52.584;5.932;2023-04-03T01:39:50;103231.78;;;0.97;89.44
74529;BME280;63009;52.584;5.932;2023-04-03T01:42:15;103200.06;;;0.71;89.75
74529;BME280;63009;52.584;5.932;2023-04-03T01:44:41;103236.88;;;0.89;90.50
74529;BME280;63009;52.584;5.932;2023-04-03T01:47:06;103234.34;;;0.94;90.06
74529;BME280;63009;52.584;5.932;2023-04-03T01:49:32;103243.75;;;0.86;90.25
74529;BME280;63009;52.584;5.932;2023-04-03T01:51:57;103244.53;;;0.83;90.76
74529;BME280;63009;52.584;5.932;2023-04-03T01:54:22;103235.84;;;0.83;90.16
74529;BME280;63009;52.584;5.932;2023-04-03T01:56:48;103230.72;;;0.86;90.82
74529;BME280;63009;52.584;5.932;2023-04-03T01:59:13;103231.50;;;0.82;91.01
74529;BME280;63009;52.584;5.932;2023-04-03T02:01:40;103233.16;;;0.78;90.90
74529;BME280;63009;52.584;5.932;2023-04-03T02:04:05;103213.97;;;0.72;90.48
74529;BME280;63009;52.584;5.932;2023-04-03T02:06:30;103230.50;;;0.75;90.35
74529;BME280;63009;52.584;5.932;2023-04-03T02:08:55;103228.69;;;0.71;90.73
74529;BME280;63009;52.584;5.932;2023-04-03T02:11:21;103214.59;;;0.62;90.69
74529;BME280;63009;52.584;5.932;2023-04-03T02:13:46;103212.91;;;0.64;91.11
74529;BME280;63009;52.584;5.932;2023-04-03T02:16:11;103244.34;;;0.73;91.22
74529;BME280;63009;52.584;5.932;2023-04-03T02:18:37;103218.13;;;0.64;91.41
74529;BME280;63009;52.584;5.932;2023-04-03T02:21:03;103243.44;;;0.71;91.15
74529;BME280;63009;52.584;5.932;2023-04-03T02:23:29;103245.19;;;0.72;91.07
74529;BME280;63009;52.584;5.932;2023-04-03T02:26:03;103242.44;;;0.66;91.66
74529;BME280;63009;52.584;5.932;2023-04-03T02:28:28;103250.16;;;0.61;91.10
74529;BME280;63009;52.584;5.932;2023-04-03T02:30:53;103256.28;;;0.65;91.54
74529;BME280;63009;52.584;5.932;2023-04-03T02:33:18;103234.50;;;0.59;91.88
74529;BME280;63009;52.584;5.932;2023-04-03T02:35:44;103253.72;;;0.66;91.75
74529;BME280;63009;52.584;5.932;2023-04-03T02:38:11;103252.69;;;0.58;92.42
74529;BME280;63009;52.584;5.932;2023-04-03T02:40:37;103266.66;;;0.62;92.00
74529;BME280;63009;52.584;5.932;2023-04-03T02:43:02;103264.88;;;0.61;92.41
74529;BME280;63009;52.584;5.932;2023-04-03T02:45:27;103228.88;;;0.40;92.28
74529;BME280;63009;52.584;5.932;2023-04-03T02:47:53;103259.53;;;0.54;92.31
74529;BME280;63009;52.584;5.932;2023-04-03T02:50:18;103256.88;;;0.51;92.60
74529;BME280;63009;52.584;5.932;2023-04-03T02:52:43;103268.41;;;0.63;91.97
74529;BME280;63009;52.584;5.932;2023-04-03T02:55:12;103256.09;;;0.55;92.50
74529;BME280;63009;52.584;5.932;2023-04-03T02:57:38;103269.16;;;0.57;92.49
74529;BME280;63009;52.584;5.932;2023-04-03T03:00:04;103234.16;;;0.43;91.50
74529;BME280;63009;52.584;5.932;2023-04-03T03:02:29;103256.09;;;0.55;92.00
74529;BME280;63009;52.584;5.932;2023-04-03T03:04:54;103277.84;;;0.57;91.82
74529;BME280;63009;52.584;5.932;2023-04-03T03:07:20;103277.75;;;0.54;92.56
74529;BME280;63009;52.584;5.932;2023-04-03T03:09:45;103279.50;;;0.55;92.26
74529;BME280;63009;52.584;5.932;2023-04-03T03:12:10;103262.00;;;0.47;92.22
74529;BME280;63009;52.584;5.932;2023-04-03T03:14:35;103254.91;;;0.41;92.51
74529;BME280;63009;52.584;5.932;2023-04-03T03:17:01;103267.03;;;0.41;92.44
74529;BME280;63009;52.584;5.932;2023-04-03T03:19:26;103283.72;;;0.49;92.69
74529;BME280;63009;52.584;5.932;2023-04-03T03:21:51;103266.16;;;0.40;92.61
74529;BME280;63009;52.584;5.932;2023-04-03T03:24:17;103277.34;;;0.36;92.64
74529;BME280;63009;52.584;5.932;2023-04-03T03:26:42;103252.72;;;0.20;93.11
74529;BME280;63009;52.584;5.932;2023-04-03T03:29:07;103289.38;;;0.31;93.35
74529;BME280;63009;52.584;5.932;2023-04-03T03:31:33;103245.75;;;0.19;93.68
74529;BME280;63009;52.584;5.932;2023-04-03T03:33:58;103263.25;;;0.26;93.33
74529;BME280;63009;52.584;5.932;2023-04-03T03:36:23;103272.91;;;0.31;93.50
74529;BME280;63009;52.584;5.932;2023-04-03T03:38:49;103263.25;;;0.26;93.46
74529;BME280;63009;52.584;5.932;2023-04-03T03:41:14;103287.72;;;0.35;93.94
74529;BME280;63009;52.584;5.932;2023-04-03T03:43:39;103296.19;;;0.27;93.89
74529;BME280;63009;52.584;5.932;2023-04-03T03:46:04;103302.28;;;0.28;93.90
74529;BME280;63009;52.584;5.932;2023-04-03T03:48:30;103282.09;;;0.16;93.79
74529;BME280;63009;52.584;5.932;2023-04-03T03:50:55;103295.22;;;0.22;93.94
74529;BME280;63009;52.584;5.932;2023-04-03T03:53:21;103304.75;;;0.22;94.38
74529;BME280;63009;52.584;5.932;2023-04-03T03:55:46;103295.25;;;0.24;94.52
74529;BME280;63009;52.584;5.932;2023-04-03T03:58:11;103302.94;;;0.18;94.76
74529;BME280;63009;52.584;5.932;2023-04-03T04:00:36;103314.31;;;0.23;95.21
74529;BME280;63009;52.584;5.932;2023-04-03T04:03:02;103216.72;;;-0.35;95.18
74529;BME280;63009;52.584;5.932;2023-04-03T04:05:27;103301.91;;;0.13;95.12
74529;BME280;63009;52.584;5.932;2023-04-03T04:07:53;103307.09;;;0.11;95.23
74529;BME280;63009;52.584;5.932;2023-04-03T04:10:18;103316.63;;;0.12;95.97
74529;BME280;63009;52.584;5.932;2023-04-03T04:12:43;103308.88;;;0.14;95.96
74529;BME280;63009;52.584;5.932;2023-04-03T04:15:09;103302.56;;;0.03;96.52
74529;BME280;63009;52.584;5.932;2023-04-03T04:17:35;103310.22;;;-0.02;96.82
74529;BME280;63009;52.584;5.932;2023-04-03T04:20:01;103316.41;;;0.02;96.19
74529;BME280;63009;52.584;5.932;2023-04-03T04:22:26;103300.66;;;-0.03;96.04
74529;BME280;63009;52.584;5.932;2023-04-03T04:24:51;103304.09;;;-0.04;96.00
74529;BME280;63009;52.584;5.932;2023-04-03T04:27:16;103308.41;;;-0.06;95.28
74529;BME280;63009;52.584;5.932;2023-04-03T04:29:42;103304.78;;;-0.13;95.36
74529;BME280;63009;52.584;5.932;2023-04-03T04:32:07;103298.63;;;-0.15;95.21
74529;BME280;63009;52.584;5.932;2023-04-03T04:34:33;103307.25;;;-0.17;95.76
74529;BME280;63009;52.584;5.932;2023-04-03T04:36:59;103308.88;;;-0.21;96.30
74529;BME280;63009;52.584;5.932;2023-04-03T04:39:24;103307.91;;;-0.26;96.65
74529;BME280;63009;52.584;5.932;2023-04-03T04:41:49;103315.75;;;-0.23;96.47
74529;BME280;63009;52.584;5.932;2023-04-03T04:44:14;103310.53;;;-0.24;96.71
74529;BME280;63009;52.584;5.932;2023-04-03T04:46:40;103323.56;;;-0.23;97.82
74529;BME280;63009;52.584;5.932;2023-04-03T04:49:05;103327.06;;;-0.21;97.52
74529;BME280;63009;52.584;5.932;2023-04-03T04:51:30;103324.22;;;-0.30;97.57
74529;BME280;63009;52.584;5.932;2023-04-03T04:53:56;103331.00;;;-0.37;98.64
74529;BME280;63009;52.584;5.932;2023-04-03T04:56:21;103330.88;;;-0.41;98.48
74529;BME280;63009;52.584;5.932;2023-04-03T04:58:46;103325.63;;;-0.43;97.15
74529;BME280;63009;52.584;5.932;2023-04-03T05:01:12;103340.16;;;-0.49;97.84
74529;BME280;63009;52.584;5.932;2023-04-03T05:03:37;103333.25;;;-0.49;97.37
74529;BME280;63009;52.584;5.932;2023-04-03T05:06:03;103327.16;;;-0.51;97.26
74529;BME280;63009;52.584;5.932;2023-04-03T05:08:28;103311.38;;;-0.57;97.02
74529;BME280;63009;52.584;5.932;2023-04-03T05:10:54;103327.22;;;-0.48;97.31
74529;BME280;63009;52.584;5.932;2023-04-03T05:13:19;103320.34;;;-0.46;97.14
74529;BME280;63009;52.584;5.932;2023-04-03T05:15:46;103322.25;;;-0.40;97.06
74529;BME280;63009;52.584;5.932;2023-04-03T05:18:12;103326.44;;;-0.44;97.19
74529;BME280;63009;52.584;5.932;2023-04-03T05:20:37;103318.28;;;-0.57;97.43
74529;BME280;63009;52.584;5.932;2023-04-03T05:23:03;103337.09;;;-0.35;97.05
74529;BME280;63009;52.584;5.932;2023-04-03T05:25:28;103347.41;;;-0.38;97.03
74529;BME280;63009;52.584;5.932;2023-04-03T05:27:53;103355.28;;;-0.35;96.98
74529;BME280;63009;52.584;5.932;2023-04-03T05:30:19;103352.59;;;-0.39;97.91
74529;BME280;63009;52.584;5.932;2023-04-03T05:32:44;103357.56;;;-0.47;98.22
74529;BME280;63009;52.584;5.932;2023-04-03T05:35:10;103354.94;;;-0.47;98.29
74529;BME280;63009;52.584;5.932;2023-04-03T05:37:36;103365.34;;;-0.47;98.30
74529;BME280;63009;52.584;5.932;2023-04-03T05:40:03;103361.06;;;-0.45;97.94
74529;BME280;63009;52.584;5.932;2023-04-03T05:42:28;103364.47;;;-0.47;97.53
74529;BME280;63009;52.584;5.932;2023-04-03T05:44:54;103364.47;;;-0.47;97.99
74529;BME280;63009;52.584;5.932;2023-04-03T05:47:19;103373.31;;;-0.41;98.24
74529;BME280;63009;52.584;5.932;2023-04-03T05:49:45;103370.72;;;-0.41;97.97
74529;BME280;63009;52.584;5.932;2023-04-03T05:54:45;103366.59;;;-0.33;96.90
74529;BME280;63009;52.584;5.932;2023-04-03T05:57:13;103357.13;;;-0.31;97.22
74529;BME280;63009;52.584;5.932;2023-04-03T05:59:38;103380.81;;;-0.20;96.57
74529;BME280;63009;52.584;5.932;2023-04-03T06:02:03;103357.38;;;-0.21;96.58
74529;BME280;63009;52.584;5.932;2023-04-03T06:04:28;103350.59;;;-0.15;96.15
74529;BME280;63009;52.584;5.932;2023-04-03T06:06:57;103361.34;;;-0.03;95.02
74529;BME280;63009;52.584;5.932;2023-04-03T06:09:25;103375.53;;;0.10;94.98
74529;BME280;63009;52.584;5.932;2023-04-03T06:11:52;103382.63;;;0.16;94.59
74529;BME280;63009;52.584;5.932;2023-04-03T06:14:17;103371.44;;;0.20;93.71
74529;BME280;63009;52.584;5.932;2023-04-03T06:16:43;103377.59;;;0.23;92.93
74529;BME280;63009;52.584;5.932;2023-04-03T06:19:08;103388.38;;;0.39;93.41
74529;BME280;63009;52.584;5.932;2023-04-03T06:21:34;103383.41;;;0.48;92.97
74529;BME280;63009;52.584;5.932;2023-04-03T06:24:01;103392.44;;;0.62;92.84
74529;BME280;63009;52.584;5.932;2023-04-03T06:26:27;103382.84;;;0.59;92.39
74529;BME280;63009;52.584;5.932;2023-04-03T06:28:52;103388.16;;;0.66;92.09
74529;BME280;63009;52.584;5.932;2023-04-03T06:31:17;103398.75;;;0.72;91.65
74529;BME280;63009;52.584;5.932;2023-04-03T06:33:43;103380.31;;;0.64;90.95
74529;BME280;63009;52.584;5.932;2023-04-03T06:36:10;103393.78;;;0.84;91.20
74529;BME280;63009;52.584;5.932;2023-04-03T06:38:36;103400.91;;;0.91;90.59
74529;BME280;63009;52.584;5.932;2023-04-03T06:41:01;103393.00;;;0.86;90.52
74529;BME280;63009;52.584;5.932;2023-04-03T06:43:27;103371.34;;;0.87;89.51
74529;BME280;63009;52.584;5.932;2023-04-03T06:45:52;103386.44;;;1.04;89.41
74529;BME280;63009;52.584;5.932;2023-04-03T06:48:18;103399.72;;;1.16;89.00
74529;BME280;63009;52.584;5.932;2023-04-03T06:50:43;103385.97;;;1.23;89.52
74529;BME280;63009;52.584;5.932;2023-04-03T06:53:09;103416.06;;;1.49;88.26
74529;BME280;63009;52.584;5.932;2023-04-03T06:55:35;103404.94;;;1.57;87.69
74529;BME280;63009;52.584;5.932;2023-04-03T06:58:01;103398.25;;;1.71;87.91
74529;BME280;63009;52.584;5.932;2023-04-03T07:00:27;103418.00;;;2.05;86.07
74529;BME280;63009;52.584;5.932;2023-04-03T07:02:52;103414.06;;;2.27;85.34
74529;BME280;63009;52.584;5.932;2023-04-03T07:05:18;103396.06;;;2.42;83.42
74529;BME280;63009;52.584;5.932;2023-04-03T07:07:43;103416.44;;;2.66;82.85
74529;BME280;63009;52.584;5.932;2023-04-03T07:10:09;103402.84;;;2.87;81.93
74529;BME280;63009;52.584;5.932;2023-04-03T07:12:35;103410.00;;;3.00;81.27
74529;BME280;63009;52.584;5.932;2023-04-03T07:15:00;103426.91;;;3.26;79.79
74529;BME280;63009;52.584;5.932;2023-04-03T07:17:26;103424.53;;;3.43;78.29
74529;BME280;63009;52.584;5.932;2023-04-03T07:19:51;103425.72;;;3.70;78.07
74529;BME280;63009;52.584;5.932;2023-04-03T07:22:17;103444.41;;;4.05;77.09
74529;BME280;63009;52.584;5.932;2023-04-03T07:24:43;103414.84;;;4.12;74.71
74529;BME280;63009;52.584;5.932;2023-04-03T07:27:09;103445.34;;;4.10;73.90
74529;BME280;63009;52.584;5.932;2023-04-03T07:29:35;103445.13;;;3.90;74.23
74529;BME280;63009;52.584;5.932;2023-04-03T07:32:01;103443.50;;;4.03;74.87
74529;BME280;63009;52.584;5.932;2023-04-03T07:34:27;103429.84;;;4.31;75.09
74529;BME280;63009;52.584;5.932;2023-04-03T07:36:52;103439.69;;;4.58;72.83
74529;BME280;63009;52.584;5.932;2023-04-03T07:39:18;103446.97;;;4.99;70.93
74529;BME280;63009;52.584;5.932;2023-04-03T07:41:43;103449.78;;;5.32;68.78
74529;BME280;63009;52.584;5.932;2023-04-03T07:44:08;103432.31;;;5.33;66.64
74529;BME280;63009;52.584;5.932;2023-04-03T07:46:35;103438.47;;;5.35;65.90
74529;BME280;63009;52.584;5.932;2023-04-03T07:49:00;103443.88;;;5.79;67.09
74529;BME280;63009;52.584;5.932;2023-04-03T07:51:25;103456.19;;;5.91;63.89
74529;BME280;63009;52.584;5.932;2023-04-03T07:53:51;103438.59;;;5.73;64.35
74529;BME280;63009;52.584;5.932;2023-04-03T07:56:17;103455.22;;;5.72;65.02
74529;BME280;63009;52.584;5.932;2023-04-03T07:58:42;103441.09;;;5.43;63.15
74529;BME280;63009;52.584;5.932;2023-04-03T08:01:09;103460.41;;;5.61;63.94
74529;BME280;63009;52.584;5.932;2023-04-03T08:03:34;103465.66;;;5.60;64.57
74529;BME280;63009;52.584;5.932;2023-04-03T08:06:04;103461.38;;;5.77;63.56
74529;BME280;63009;52.584;5.932;2023-04-03T08:08:30;103447.47;;;6.03;62.73
74529;BME280;63009;52.584;5.932;2023-04-03T08:10:58;103448.34;;;5.92;61.03
74529;BME280;63009;52.584;5.932;2023-04-03T08:13:23;103429.03;;;5.86;60.17
74529;BME280;63009;52.584;5.932;2023-04-03T08:15:49;103473.75;;;6.13;59.96
74529;BME280;63009;52.584;5.932;2023-04-03T08:18:15;103447.41;;;5.87;58.72
74529;BME280;63009;52.584;5.932;2023-04-03T08:20:41;103472.84;;;5.96;60.91
74529;BME280;63009;52.584;5.932;2023-04-03T08:23:07;103479.72;;;5.76;59.26
74529;BME280;63009;52.584;5.932;2023-04-03T08:25:37;103483.25;;;5.84;58.29
74529;BME280;63009;52.584;5.932;2023-04-03T08:28:02;103480.78;;;6.25;58.61
74529;BME280;63009;52.584;5.932;2023-04-03T08:30:27;103471.13;;;6.16;57.69
74529;BME280;63009;52.584;5.932;2023-04-03T08:32:53;103476.38;;;6.16;56.26
74529;BME280;63009;52.584;5.932;2023-04-03T08:35:18;103450.13;;;6.18;56.14
74529;BME280;63009;52.584;5.932;2023-04-03T08:37:44;103480.81;;;6.43;53.85
74529;BME280;63009;52.584;5.932;2023-04-03T08:40:15;103479.09;;;6.62;56.99
74529;BME280;63009;52.584;5.932;2023-04-03T08:45:43;103477.25;;;7.34;55.00
74529;BME280;63009;52.584;5.932;2023-04-03T08:48:19;103483.41;;;7.27;53.60
74529;BME280;63009;52.584;5.932;2023-04-03T08:50:50;103460.63;;;7.14;54.46
74529;BME280;63009;52.584;5.932;2023-04-03T08:53:26;103452.69;;;7.31;53.82
74529;BME280;63009;52.584;5.932;2023-04-03T08:55:54;103472.72;;;7.70;51.24
74529;BME280;63009;52.584;5.932;2023-04-03T08:58:29;103457.84;;;7.66;49.67
74529;BME280;63009;52.584;5.932;2023-04-03T09:00:59;103470.16;;;7.58;49.52
74529;BME280;63009;52.584;5.932;2023-04-03T09:03:29;103476.22;;;7.72;49.44
74529;BME280;63009;52.584;5.932;2023-04-03T09:06:21;103467.41;;;7.82;50.37
74529;BME280;63009;52.584;5.932;2023-04-03T09:11:46;103468.38;;;7.60;49.07
74529;BME280;63009;52.584;5.932;2023-04-03T09:17:12;103455.94;;;7.94;47.17
74529;BME280;63009;52.584;5.932;2023-04-03T09:19:49;103457.63;;;8.09;46.63
74529;BME280;63009;52.584;5.932;2023-04-03T09:22:27;103458.53;;;8.06;48.04
74529;BME280;63009;52.584;5.932;2023-04-03T09:25:13;103447.25;;;7.78;47.27
74529;BME280;63009;52.584;5.932;2023-04-03T09:27:40;103462.25;;;7.64;48.55
74529;BME280;63009;52.584;5.932;2023-04-03T09:30:13;103441.22;;;7.52;45.59
74529;BME280;63009;52.584;5.932;2023-04-03T09:32:39;103448.94;;;7.93;45.25
74529;BME280;63009;52.584;5.932;2023-04-03T09:35:27;103453.19;;;8.12;44.14
74529;BME280;63009;52.584;5.932;2023-04-03T09:37:59;103463.56;;;8.46;44.75
74529;BME280;63009;52.584;5.932;2023-04-03T09:42:59;103448.56;;;8.51;43.63
74529;BME280;63009;52.584;5.932;2023-04-03T09:45:27;103467.13;;;8.32;41.07
74529;BME280;63009;52.584;5.932;2023-04-03T09:48:06;103466.00;;;8.69;42.77
74529;BME280;63009;52.584;5.932;2023-04-03T09:50:32;103469.38;;;8.87;42.73
74529;BME280;63009;52.584;5.932;2023-04-03T09:52:58;103453.00;;;8.49;40.48
74529;BME280;63009;52.584;5.932;2023-04-03T09:55:25;103458.22;;;8.53;40.25
74529;BME280;63009;52.584;5.932;2023-04-03T09:57:58;103441.38;;;8.73;40.59
74529;BME280;63009;52.584;5.932;2023-04-03T10:00:29;103452.00;;;8.63;40.42
74529;BME280;63009;52.584;5.932;2023-04-03T10:02:56;103444.06;;;8.65;41.28
74529;BME280;63009;52.584;5.932;2023-04-03T10:05:27;103448.59;;;8.49;41.95
74529;BME280;63009;52.584;5.932;2023-04-03T10:08:10;103448.22;;;8.90;40.29
74529;BME280;63009;52.584;5.932;2023-04-03T10:10:37;103433.75;;;8.30;40.98
74529;BME280;63009;52.584;5.932;2023-04-03T10:13:04;103433.63;;;8.51;41.53
74529;BME280;63009;52.584;5.932;2023-04-03T10:15:36;103423.78;;;8.70;42.09
74529;BME280;63009;52.584;5.932;2023-04-03T10:21:29;103437.75;;;8.83;41.09
74529;BME280;63009;52.584;5.932;2023-04-03T10:26:57;103429.59;;;9.07;41.88
74529;BME280;63009;52.584;5.932;2023-04-03T10:32:16;103426.47;;;9.50;41.81
74529;BME280;63009;52.584;5.932;2023-04-03T10:34:46;103428.59;;;9.19;41.15
74529;BME280;63009;52.584;5.932;2023-04-03T10:37:30;103423.97;;;9.36;39.21
74529;BME280;63009;52.584;5.932;2023-04-03T10:43:04;103408.41;;;9.16;43.81
74529;BME280;63009;52.584;5.932;2023-04-03T10:45:48;103419.31;;;9.58;41.19
74529;BME280;63009;52.584;5.932;2023-04-03T10:51:16;103399.78;;;9.70;40.53
74529;BME280;63009;52.584;5.932;2023-04-03T10:54:11;103388.28;;;9.06;40.97
74529;BME280;63009;52.584;5.932;2023-04-03T10:56:40;103389.53;;;8.69;38.34
74529;BME280;63009;52.584;5.932;2023-04-03T10:59:23;103404.28;;;8.89;41.39
74529;BME280;63009;52.584;5.932;2023-04-03T11:01:56;103371.09;;;8.69;41.45
74529;BME280;63009;52.584;5.932;2023-04-03T11:04:27;103390.97;;;9.03;41.94
74529;BME280;63009;52.584;5.932;2023-04-03T11:07:02;103364.03;;;8.69;39.98
74529;BME280;63009;52.584;5.932;2023-04-03T11:09:33;103390.81;;;9.15;41.58
74529;BME280;63009;52.584;5.932;2023-04-03T11:14:56;103389.09;;;9.11;42.38
74529;BME280;63009;52.584;5.932;2023-04-03T11:17:32;103387.88;;;9.40;42.43
74529;BME280;63009;52.584;5.932;2023-04-03T11:20:08;103393.09;;;9.43;40.49
74529;BME280;63009;52.584;5.932;2023-04-03T11:22:39;103371.09;;;9.45;38.53
74529;BME280;63009;52.584;5.932;2023-04-03T11:27:42;103370.94;;;9.58;40.62
74529;BME280;63009;52.584;5.932;2023-04-03T11:30:24;103381.28;;;9.70;39.86
74529;BME280;63009;52.584;5.932;2023-04-03T11:32:56;103376.88;;;9.70;39.30
74529;BME280;63009;52.584;5.932;2023-04-03T11:35:25;103371.97;;;9.43;38.72
74529;BME280;63009;52.584;5.932;2023-04-03T11:37:53;103375.44;;;9.48;39.18
74529;BME280;63009;52.584;5.932;2023-04-03T11:40:28;103365.28;;;9.82;39.73
74529;BME280;63009;52.584;5.932;2023-04-03T11:43:21;103361.78;;;9.80;40.94
74529;BME280;63009;52.584;5.932;2023-04-03T11:45:54;103360.94;;;9.78;38.21
74529;BME280;63009;52.584;5.932;2023-04-03T11:50:59;103357.09;;;10.00;40.50
74529;BME280;63009;52.584;5.932;2023-04-03T11:56:03;103338.19;;;9.69;37.88
74529;BME280;63009;52.584;5.932;2023-04-03T11:58:31;103365.25;;;9.83;38.49
74529;BME280;63009;52.584;5.932;2023-04-03T12:01:03;103357.47;;;9.76;39.72
74529;BME280;63009;52.584;5.932;2023-04-03T12:16:22;103347.38;;;9.44;37.54
74529;BME280;63009;52.584;5.932;2023-04-03T12:22:04;103321.81;;;9.46;37.73
74529;BME280;63009;52.584;5.932;2023-04-03T12:29:29;103330.56;;;9.48;38.95
74529;BME280;63009;52.584;5.932;2023-04-03T12:35:23;103314.75;;;9.46;38.73
74529;BME280;63009;52.584;5.932;2023-04-03T12:48:38;103285.63;;;9.52;42.58
74529;BME280;63009;52.584;5.932;2023-04-03T12:51:05;103279.13;;;9.75;39.53
74529;BME280;63009;52.584;5.932;2023-04-03T12:53:37;103278.91;;;9.89;39.84
74529;BME280;63009;52.584;5.932;2023-04-03T12:56:28;103259.34;;;10.00;40.23
74529;BME280;63009;52.584;5.932;2023-04-03T13:01:38;103269.69;;;10.11;37.73
74529;BME280;63009;52.584;5.932;2023-04-03T13:04:04;103281.88;;;10.23;37.74
74529;BME280;63009;52.584;5.932;2023-04-03T13:06:41;103269.56;;;10.22;37.73
74529;BME280;63009;52.584;5.932;2023-04-03T13:09:19;103260.94;;;10.09;38.99
74529;BME280;63009;52.584;5.932;2023-04-03T13:11:48;103274.00;;;10.18;38.11
74529;BME280;63009;52.584;5.932;2023-04-03T13:14:19;103272.53;;;10.02;39.21
74529;BME280;63009;52.584;5.932;2023-04-03T13:16:57;103261.34;;;9.86;39.34
74529;BME280;63009;52.584;5.932;2023-04-03T13:19:27;103249.22;;;9.74;38.46
74529;BME280;63009;52.584;5.932;2023-04-03T13:22:04;103269.53;;;9.69;40.72
74529;BME280;63009;52.584;5.932;2023-04-03T13:24:33;103264.47;;;9.57;39.47
74529;BME280;63009;52.584;5.932;2023-04-03T13:26:59;103262.50;;;9.68;39.68
74529;BME280;63009;52.584;5.932;2023-04-03T13:29:29;103258.06;;;9.70;39.98
74529;BME280;63009;52.584;5.932;2023-04-03T13:31:55;103266.72;;;9.80;39.96
74529;BME280;63009;52.584;5.932;2023-04-03T13:34:25;103268.16;;;10.01;40.41
74529;BME280;63009;52.584;5.932;2023-04-03T13:41:49;103256.41;;;9.65;40.28
74529;BME280;63009;52.584;5.932;2023-04-03T13:46:46;103248.16;;;9.29;40.18
74529;BME280;63009;52.584;5.932;2023-04-03T13:49:27;103248.63;;;9.56;38.68
74529;BME280;63009;52.584;5.932;2023-04-03T13:51:53;103255.75;;;9.49;40.01
74529;BME280;63009;52.584;5.932;2023-04-03T13:54:20;103245.69;;;9.74;40.25
74529;BME280;63009;52.584;5.932;2023-04-03T13:56:53;103252.47;;;9.90;41.88
74529;BME280;63009;52.584;5.932;2023-04-03T13:59:28;103252.44;;;9.92;40.92
74529;BME280;63009;52.584;5.932;2023-04-03T14:04:30;103228.72;;;9.89;41.00
74529;BME280;63009;52.584;5.932;2023-04-03T14:06:56;103231.75;;;9.64;39.64
74529;BME280;63009;52.584;5.932;2023-04-03T14:09:23;103217.88;;;9.51;41.21
74529;BME280;63009;52.584;5.932;2023-04-03T14:11:52;103229.03;;;9.69;40.20
74529;BME280;63009;52.584;5.932;2023-04-03T14:14:21;103239.75;;;9.61;39.50
74529;BME280;63009;52.584;5.932;2023-04-03T14:16:51;103225.16;;;9.37;39.71
74529;BME280;63009;52.584;5.932;2023-04-03T14:19:24;103223.09;;;9.55;40.52
74529;BME280;63009;52.584;5.932;2023-04-03T14:21:50;103227.13;;;9.78;40.13
74529;BME280;63009;52.584;5.932;2023-04-03T14:24:16;103218.41;;;9.75;40.55
74529;BME280;63009;52.584;5.932;2023-04-03T14:26:43;103223.50;;;9.86;40.87
74529;BME280;63009;52.584;5.932;2023-04-03T14:29:10;103204.88;;;9.92;40.56
74529;BME280;63009;52.584;5.932;2023-04-03T14:31:35;103209.56;;;9.76;40.96
74529;BME280;63009;52.584;5.932;2023-04-03T14:34:01;103201.09;;;9.56;40.06